sensor_id;sensor_type;location;lat;lon;timestamp;temperature;humidity
29571;DHT22;16814;52.118;11.436;2023-03-02T00:01:59;-1.50;99.90
29571;DHT22;16814;52.118;11.436;2023-03-02T00:04:55;-1.40;99.90
29571;DHT22;16814;52.118;11.436;2023-03-02T00:07:31;-1.40;99.90
29571;DHT22;16814;52.118;11.436;2023-03-02T00:10:00;-1.40;99.90
29571;DHT22;16814;52.118;11.436;2023-03-02T00:12:29;-1.50;99.90
29571;DHT22;16814;52.118;11.436;2023-03-02T00:14:58;-1.50;99.90
29571;DHT22;16814;52.118;11.436;2023-03-02T00:17:24;-1.40;99.90
29571;DHT22;16814;52.118;11.436;2023-03-02T00:19:54;-1.40;99.90
29571;DHT22;16814;52.118;11.436;2023-03-02T00:22:39;-1.30;99.90
29571;DHT22;16814;52.118;11.436;2023-03-02T00:25:07;-1.30;99.90
29571;DHT22;16814;52.118;11.436;2023-03-02T00:27:33;-1.40;99.90
29571;DHT22;16814;52.118;11.436;2023-03-02T00:30:00;-1.50;99.90
29571;DHT22;16814;52.118;11.436;2023-03-02T00:32:28;-1.70;99.90
29571;DHT22;16814;52.118;11.436;2023-03-02T00:34:54;-1.70;99.90
29571;DHT22;16814;52.118;11.436;2023-03-02T00:37:25;-1.80;99.90
29571;DHT22;16814;52.118;11.436;2023-03-02T00:39:52;-1.70;99.90
29571;DHT22;16814;52.118;11.436;2023-03-02T00:42:20;-1.70;99.90
29571;DHT22;16814;52.118;11.436;2023-03-02T00:44:48;-1.70;99.90
29571;DHT22;16814;52.118;11.436;2023-03-02T00:47:17;-1.60;99.90
29571;DHT22;16814;52.118;11.436;2023-03-02T00:49:43;-1.60;99.90
29571;DHT22;16814;52.118;11.436;2023-03-02T00:52:14;-1.60;99.90
29571;DHT22;16814;52.118;11.436;2023-03-02T00:54:41;-1.60;99.90
29571;DHT22;16814;52.118;11.436;2023-03-02T00:57:07;-1.60;99.90
29571;DHT22;16814;52.118;11.436;2023-03-02T00:59:41;-1.50;99.90
29571;DHT22;16814;52.118;11.436;2023-03-02T01:02:08;-1.50;99.90
29571;DHT22;16814;52.118;11.436;2023-03-02T01:04:44;-1.50;99.90
29571;DHT22;16814;52.118;11.436;2023-03-02T01:07:14;-1.50;99.90
29571;DHT22;16814;52.118;11.436;2023-03-02T01:09:42;-1.50;99.90
29571;DHT22;16814;52.118;11.436;2023-03-02T01:12:09;-1.50;99.90
29571;DHT22;16814;52.118;11.436;2023-03-02T01:14:45;-1.70;99.90
29571;DHT22;16814;52.118;11.436;2023-03-02T01:17:14;-1.70;99.90
29571;DHT22;16814;52.118;11.436;2023-03-02T01:19:43;-1.70;99.90
29571;DHT22;16814;52.118;11.436;2023-03-02T01:22:10;-1.70;99.90
29571;DHT22;16814;52.118;11.436;2023-03-02T01:24:37;-1.70;99.90
29571;DHT22;16814;52.118;11.436;2023-03-02T01:27:06;-1.70;99.90
29571;DHT22;16814;52.118;11.436;2023-03-02T01:29:34;-1.70;99.90
29571;DHT22;16814;52.118;11.436;2023-03-02T01:32:00;-1.70;99.90
29571;DHT22;16814;52.118;11.436;2023-03-02T01:34:26;-1.70;99.90
29571;DHT22;16814;52.118;11.436;2023-03-02T01:36:53;-1.60;99.90
29571;DHT22;16814;52.118;11.436;2023-03-02T01:39:20;-1.60;99.90
29571;DHT22;16814;52.118;11.436;2023-03-02T01:41:51;-1.60;99.90
29571;DHT22;16814;52.118;11.436;2023-03-02T01:44:37;-1.60;99.90
29571;DHT22;16814;52.118;11.436;2023-03-02T01:52:40;-1.70;99.90
29571;DHT22;16814;52.118;11.436;2023-03-02T01:55:09;-1.60;99.90
29571;DHT22;16814;52.118;11.436;2023-03-02T01:57:39;-1.70;99.90
29571;DHT22;16814;52.118;11.436;2023-03-02T02:00:14;-1.70;99.90
29571;DHT22;16814;52.118;11.436;2023-03-02T02:02:44;-1.80;99.90
29571;DHT22;16814;52.118;11.436;2023-03-02T02:05:17;-1.90;99.90
29571;DHT22;16814;52.118;11.436;2023-03-02T02:07:45;-1.90;99.90
29571;DHT22;16814;52.118;11.436;2023-03-02T02:10:12;-1.90;99.90
29571;DHT22;16814;52.118;11.436;2023-03-02T02:12:40;-1.90;99.90
29571;DHT22;16814;52.118;11.436;2023-03-02T02:15:07;-1.90;99.90
29571;DHT22;16814;52.118;11.436;2023-03-02T02:17:34;-1.90;99.90
29571;DHT22;16814;52.118;11.436;2023-03-02T02:28:49;-1.80;99.90
29571;DHT22;16814;52.118;11.436;2023-03-02T02:31:54;-1.80;99.90
29571;DHT22;16814;52.118;11.436;2023-03-02T02:34:50;-1.90;99.90
29571;DHT22;16814;52.118;11.436;2023-03-02T02:37:23;-1.90;99.90
29571;DHT22;16814;52.118;11.436;2023-03-02T02:39:52;-1.90;99.90
29571;DHT22;16814;52.118;11.436;2023-03-02T02:42:41;-2.00;99.90
29571;DHT22;16814;52.118;11.436;2023-03-02T02:45:18;-2.00;99.90
29571;DHT22;16814;52.118;11.436;2023-03-02T02:47:48;-2.00;99.90
29571;DHT22;16814;52.118;11.436;2023-03-02T02:50:18;-2.00;99.90
29571;DHT22;16814;52.118;11.436;2023-03-02T02:52:55;-2.10;99.90
29571;DHT22;16814;52.118;11.436;2023-03-02T02:55:23;-2.10;99.90
29571;DHT22;16814;52.118;11.436;2023-03-02T02:57:52;-2.00;99.90
29571;DHT22;16814;52.118;11.436;2023-03-02T03:00:21;-2.00;99.90
29571;DHT22;16814;52.118;11.436;2023-03-02T03:03:14;-2.00;99.90
29571;DHT22;16814;52.118;11.436;2023-03-02T03:05:55;-2.00;99.90
29571;DHT22;16814;52.118;11.436;2023-03-02T03:11:12;-2.10;99.90
29571;DHT22;16814;52.118;11.436;2023-03-02T03:13:40;-2.10;99.90
29571;DHT22;16814;52.118;11.436;2023-03-02T03:16:10;-2.10;99.90
29571;DHT22;16814;52.118;11.436;2023-03-02T03:18:42;-2.00;99.90
29571;DHT22;16814;52.118;11.436;2023-03-02T03:21:12;-2.10;99.90
29571;DHT22;16814;52.118;11.436;2023-03-02T03:23:38;-2.00;99.90
29571;DHT22;16814;52.118;11.436;2023-03-02T03:26:05;-2.10;99.90
29571;DHT22;16814;52.118;11.436;2023-03-02T03:28:32;-2.20;99.90
29571;DHT22;16814;52.118;11.436;2023-03-02T03:30:59;-2.10;99.90
29571;DHT22;16814;52.118;11.436;2023-03-02T03:33:27;-2.10;99.90
29571;DHT22;16814;52.118;11.436;2023-03-02T03:35:54;-2.10;99.90
29571;DHT22;16814;52.118;11.436;2023-03-02T03:38:20;-2.10;99.90
29571;DHT22;16814;52.118;11.436;2023-03-02T03:40:47;-2.00;99.90
29571;DHT22;16814;52.118;11.436;2023-03-02T03:43:14;-2.10;99.90
29571;DHT22;16814;52.118;11.436;2023-03-02T03:45:40;-2.10;99.90
29571;DHT22;16814;52.118;11.436;2023-03-02T03:48:06;-2.10;99.90
29571;DHT22;16814;52.118;11.436;2023-03-02T03:50:31;-2.10;99.90
29571;DHT22;16814;52.118;11.436;2023-03-02T03:52:58;-2.10;99.90
29571;DHT22;16814;52.118;11.436;2023-03-02T03:55:25;-2.10;99.90
29571;DHT22;16814;52.118;11.436;2023-03-02T03:57:55;-2.10;99.90
29571;DHT22;16814;52.118;11.436;2023-03-02T04:00:22;-2.20;99.90
29571;DHT22;16814;52.118;11.436;2023-03-02T04:02:48;-2.10;99.90
29571;DHT22;16814;52.118;11.436;2023-03-02T04:05:16;-2.20;99.90
29571;DHT22;16814;52.118;11.436;2023-03-02T04:07:43;-2.10;99.90
29571;DHT22;16814;52.118;11.436;2023-03-02T04:10:11;-2.10;99.90
29571;DHT22;16814;52.118;11.436;2023-03-02T04:12:40;-2.20;99.90
29571;DHT22;16814;52.118;11.436;2023-03-02T04:15:11;-2.30;99.90
29571;DHT22;16814;52.118;11.436;2023-03-02T04:17:38;-2.40;99.90
29571;DHT22;16814;52.118;11.436;2023-03-02T04:20:05;-2.40;99.90
29571;DHT22;16814;52.118;11.436;2023-03-02T04:22:37;-2.50;99.90
29571;DHT22;16814;52.118;11.436;2023-03-02T04:25:04;-2.40;99.90
29571;DHT22;16814;52.118;11.436;2023-03-02T04:27:32;-2.50;99.90
29571;DHT22;16814;52.118;11.436;2023-03-02T04:30:01;-2.50;99.90
29571;DHT22;16814;52.118;11.436;2023-03-02T04:32:31;-2.50;99.90
29571;DHT22;16814;52.118;11.436;2023-03-02T04:34:59;-2.40;99.90
29571;DHT22;16814;52.118;11.436;2023-03-02T04:37:27;-2.40;99.90
29571;DHT22;16814;52.118;11.436;2023-03-02T04:39:55;-2.40;99.90
29571;DHT22;16814;52.118;11.436;2023-03-02T04:42:23;-2.50;99.90
29571;DHT22;16814;52.118;11.436;2023-03-02T04:44:51;-2.50;99.90
29571;DHT22;16814;52.118;11.436;2023-03-02T04:47:17;-2.40;99.90
29571;DHT22;16814;52.118;11.436;2023-03-02T04:49:47;-2.40;99.90
29571;DHT22;16814;52.118;11.436;2023-03-02T04:52:20;-2.40;99.90
29571;DHT22;16814;52.118;11.436;2023-03-02T04:54:47;-2.40;99.90
29571;DHT22;16814;52.118;11.436;2023-03-02T04:57:14;-2.30;99.90
29571;DHT22;16814;52.118;11.436;2023-03-02T04:59:42;-2.40;99.90
29571;DHT22;16814;52.118;11.436;2023-03-02T05:02:11;-2.30;99.90
29571;DHT22;16814;52.118;11.436;2023-03-02T05:04:37;-2.40;99.90
29571;DHT22;16814;52.118;11.436;2023-03-02T05:07:06;-2.30;99.90
29571;DHT22;16814;52.118;11.436;2023-03-02T05:09:33;-2.40;99.90
29571;DHT22;16814;52.118;11.436;2023-03-02T05:11:59;-2.40;99.90
29571;DHT22;16814;52.118;11.436;2023-03-02T05:14:26;-2.60;99.90
29571;DHT22;16814;52.118;11.436;2023-03-02T05:16:53;-2.50;99.90
29571;DHT22;16814;52.118;11.436;2023-03-02T05:19:20;-2.60;99.90
29571;DHT22;16814;52.118;11.436;2023-03-02T05:21:46;-2.60;99.90
29571;DHT22;16814;52.118;11.436;2023-03-02T05:24:25;-2.80;99.90
29571;DHT22;16814;52.118;11.436;2023-03-02T05:26:50;-2.90;99.90
29571;DHT22;16814;52.118;11.436;2023-03-02T05:29:16;-3.00;99.90
29571;DHT22;16814;52.118;11.436;2023-03-02T05:31:44;-3.10;99.90
29571;DHT22;16814;52.118;11.436;2023-03-02T05:34:15;-3.10;99.90
29571;DHT22;16814;52.118;11.436;2023-03-02T05:36:44;-3.10;99.90
29571;DHT22;16814;52.118;11.436;2023-03-02T05:39:11;-3.00;99.90
29571;DHT22;16814;52.118;11.436;2023-03-02T05:41:38;-3.00;99.90
29571;DHT22;16814;52.118;11.436;2023-03-02T05:44:06;-3.10;99.90
29571;DHT22;16814;52.118;11.436;2023-03-02T05:46:36;-3.10;99.90
29571;DHT22;16814;52.118;11.436;2023-03-02T05:49:02;-3.00;99.90
29571;DHT22;16814;52.118;11.436;2023-03-02T05:51:27;-2.90;99.90
29571;DHT22;16814;52.118;11.436;2023-03-02T05:53:54;-3.00;99.90
29571;DHT22;16814;52.118;11.436;2023-03-02T05:56:21;-3.10;99.90
29571;DHT22;16814;52.118;11.436;2023-03-02T05:58:46;-3.10;99.90
29571;DHT22;16814;52.118;11.436;2023-03-02T06:01:13;-3.10;99.90
29571;DHT22;16814;52.118;11.436;2023-03-02T06:03:39;-3.20;99.90
29571;DHT22;16814;52.118;11.436;2023-03-02T06:06:06;-3.20;99.90
29571;DHT22;16814;52.118;11.436;2023-03-02T06:08:32;-3.20;99.90
29571;DHT22;16814;52.118;11.436;2023-03-02T06:11:00;-3.20;99.90
29571;DHT22;16814;52.118;11.436;2023-03-02T06:13:25;-3.10;99.90
29571;DHT22;16814;52.118;11.436;2023-03-02T06:15:51;-3.10;99.90
29571;DHT22;16814;52.118;11.436;2023-03-02T06:18:18;-3.10;99.90
29571;DHT22;16814;52.118;11.436;2023-03-02T06:20:45;-3.10;99.90
29571;DHT22;16814;52.118;11.436;2023-03-02T06:23:11;-3.10;99.90
29571;DHT22;16814;52.118;11.436;2023-03-02T06:25:38;-2.90;99.90
29571;DHT22;16814;52.118;11.436;2023-03-02T06:28:08;-2.80;99.90
29571;DHT22;16814;52.118;11.436;2023-03-02T06:30:34;-2.60;99.90
29571;DHT22;16814;52.118;11.436;2023-03-02T06:33:01;-2.40;99.90
29571;DHT22;16814;52.118;11.436;2023-03-02T06:35:29;-2.40;99.90
29571;DHT22;16814;52.118;11.436;2023-03-02T06:37:55;-2.50;99.90
29571;DHT22;16814;52.118;11.436;2023-03-02T06:40:23;-2.50;99.90
29571;DHT22;16814;52.118;11.436;2023-03-02T06:42:50;-2.60;99.90
29571;DHT22;16814;52.118;11.436;2023-03-02T06:45:17;-2.50;99.90
29571;DHT22;16814;52.118;11.436;2023-03-02T06:47:44;-2.50;99.90
29571;DHT22;16814;52.118;11.436;2023-03-02T06:50:12;-2.50;99.90
29571;DHT22;16814;52.118;11.436;2023-03-02T06:52:37;-2.50;99.90
29571;DHT22;16814;52.118;11.436;2023-03-02T06:55:06;-2.50;99.90
29571;DHT22;16814;52.118;11.436;2023-03-02T06:57:33;-2.40;99.90
29571;DHT22;16814;52.118;11.436;2023-03-02T07:00:05;-2.30;99.90
29571;DHT22;16814;52.118;11.436;2023-03-02T07:02:35;-2.40;99.90
29571;DHT22;16814;52.118;11.436;2023-03-02T07:05:04;-2.40;99.90
29571;DHT22;16814;52.118;11.436;2023-03-02T07:07:32;-2.50;99.90
29571;DHT22;16814;52.118;11.436;2023-03-02T07:09:59;-2.40;99.90
29571;DHT22;16814;52.118;11.436;2023-03-02T07:12:25;-2.30;99.90
29571;DHT22;16814;52.118;11.436;2023-03-02T07:14:54;-2.30;99.90
29571;DHT22;16814;52.118;11.436;2023-03-02T07:17:19;-2.20;99.90
29571;DHT22;16814;52.118;11.436;2023-03-02T07:19:48;-2.30;99.90
29571;DHT22;16814;52.118;11.436;2023-03-02T07:22:13;-2.20;99.90
29571;DHT22;16814;52.118;11.436;2023-03-02T07:24:42;-2.20;99.90
29571;DHT22;16814;52.118;11.436;2023-03-02T07:27:09;-2.10;99.90
29571;DHT22;16814;52.118;11.436;2023-03-02T07:29:37;-2.20;99.90
29571;DHT22;16814;52.118;11.436;2023-03-02T07:32:04;-2.10;99.90
29571;DHT22;16814;52.118;11.436;2023-03-02T07:34:31;-2.00;99.90
29571;DHT22;16814;52.118;11.436;2023-03-02T07:36:58;-2.00;99.90
29571;DHT22;16814;52.118;11.436;2023-03-02T07:39:25;-2.00;99.90
29571;DHT22;16814;52.118;11.436;2023-03-02T07:41:52;-2.00;99.90
29571;DHT22;16814;52.118;11.436;2023-03-02T07:44:18;-2.00;99.90
29571;DHT22;16814;52.118;11.436;2023-03-02T07:46:45;-1.80;99.90
29571;DHT22;16814;52.118;11.436;2023-03-02T07:49:11;-1.80;99.90
29571;DHT22;16814;52.118;11.436;2023-03-02T07:51:39;-1.80;99.90
29571;DHT22;16814;52.118;11.436;2023-03-02T07:54:04;-1.80;99.90
29571;DHT22;16814;52.118;11.436;2023-03-02T07:56:31;-1.80;99.90
29571;DHT22;16814;52.118;11.436;2023-03-02T07:58:58;-1.90;99.90
29571;DHT22;16814;52.118;11.436;2023-03-02T08:01:24;-1.80;99.90
29571;DHT22;16814;52.118;11.436;2023-03-02T08:03:50;-1.70;99.90
29571;DHT22;16814;52.118;11.436;2023-03-02T08:06:16;-1.60;99.90
29571;DHT22;16814;52.118;11.436;2023-03-02T08:08:43;-1.70;99.90
29571;DHT22;16814;52.118;11.436;2023-03-02T08:11:14;-1.60;99.90
29571;DHT22;16814;52.118;11.436;2023-03-02T08:13:43;-1.60;99.90
29571;DHT22;16814;52.118;11.436;2023-03-02T08:16:11;-1.50;99.90
29571;DHT22;16814;52.118;11.436;2023-03-02T08:18:40;-1.50;99.90
29571;DHT22;16814;52.118;11.436;2023-03-02T08:21:17;-1.70;99.90
29571;DHT22;16814;52.118;11.436;2023-03-02T08:23:45;-1.50;99.90
29571;DHT22;16814;52.118;11.436;2023-03-02T08:26:14;-1.60;99.90
29571;DHT22;16814;52.118;11.436;2023-03-02T08:28:41;-1.60;99.90
29571;DHT22;16814;52.118;11.436;2023-03-02T08:31:08;-1.50;99.90
29571;DHT22;16814;52.118;11.436;2023-03-02T08:33:35;-1.40;99.90
29571;DHT22;16814;52.118;11.436;2023-03-02T08:36:12;-1.40;99.90
29571;DHT22;16814;52.118;11.436;2023-03-02T08:38:39;-1.40;99.90
29571;DHT22;16814;52.118;11.436;2023-03-02T08:41:19;-1.40;99.90
29571;DHT22;16814;52.118;11.436;2023-03-02T08:43:47;-1.20;99.90
29571;DHT22;16814;52.118;11.436;2023-03-02T08:46:17;-1.20;99.90
29571;DHT22;16814;52.118;11.436;2023-03-02T08:48:44;-1.30;99.90
29571;DHT22;16814;52.118;11.436;2023-03-02T08:51:19;-1.40;99.90
29571;DHT22;16814;52.118;11.436;2023-03-02T08:53:48;-1.30;99.90
29571;DHT22;16814;52.118;11.436;2023-03-02T08:56:29;-1.30;99.90
29571;DHT22;16814;52.118;11.436;2023-03-02T08:59:00;-1.10;99.90
29571;DHT22;16814;52.118;11.436;2023-03-02T09:01:29;-1.00;99.90
29571;DHT22;16814;52.118;11.436;2023-03-02T09:03:58;-1.10;99.90
29571;DHT22;16814;52.118;11.436;2023-03-02T09:06:28;-1.10;99.90
29571;DHT22;16814;52.118;11.436;2023-03-02T09:08:55;-1.00;99.90
29571;DHT22;16814;52.118;11.436;2023-03-02T09:11:23;-0.10;99.90
29571;DHT22;16814;52.118;11.436;2023-03-02T09:13:53;-0.80;99.90
29571;DHT22;16814;52.118;11.436;2023-03-02T09:16:20;-0.90;99.90
29571;DHT22;16814;52.118;11.436;2023-03-02T09:18:47;-0.80;99.90
29571;DHT22;16814;52.118;11.436;2023-03-02T09:21:15;-0.70;99.90
29571;DHT22;16814;52.118;11.436;2023-03-02T09:23:40;-0.60;99.90
29571;DHT22;16814;52.118;11.436;2023-03-02T09:26:06;-0.40;99.90
29571;DHT22;16814;52.118;11.436;2023-03-02T09:28:33;-0.40;99.90
29571;DHT22;16814;52.118;11.436;2023-03-02T09:31:08;-0.30;99.90
29571;DHT22;16814;52.118;11.436;2023-03-02T09:33:35;-0.30;99.90
29571;DHT22;16814;52.118;11.436;2023-03-02T09:36:06;-0.50;99.90
29571;DHT22;16814;52.118;11.436;2023-03-02T09:38:34;-0.30;99.90
29571;DHT22;16814;52.118;11.436;2023-03-02T09:41:44;-0.40;99.90
29571;DHT22;16814;52.118;11.436;2023-03-02T09:50:40;-0.50;99.90
29571;DHT22;16814;52.118;11.436;2023-03-02T09:53:42;-0.30;99.90
29571;DHT22;16814;52.118;11.436;2023-03-02T09:56:16;0.00;99.90
29571;DHT22;16814;52.118;11.436;2023-03-02T10:01:50;0.20;99.90
29571;DHT22;16814;52.118;11.436;2023-03-02T10:04:43;-0.10;99.90
29571;DHT22;16814;52.118;11.436;2023-03-02T10:07:25;0.00;99.90
29571;DHT22;16814;52.118;11.436;2023-03-02T10:09:54;0.00;99.90
29571;DHT22;16814;52.118;11.436;2023-03-02T10:18:37;0.10;99.90
29571;DHT22;16814;52.118;11.436;2023-03-02T10:21:45;0.40;99.90
29571;DHT22;16814;52.118;11.436;2023-03-02T10:30:18;0.50;99.90
29571;DHT22;16814;52.118;11.436;2023-03-02T10:32:51;0.60;99.90
29571;DHT22;16814;52.118;11.436;2023-03-02T10:35:29;0.60;99.90
29571;DHT22;16814;52.118;11.436;2023-03-02T10:38:14;0.60;99.90
29571;DHT22;16814;52.118;11.436;2023-03-02T10:41:01;0.60;99.90
29571;DHT22;16814;52.118;11.436;2023-03-02T10:43:48;0.80;99.90
29571;DHT22;16814;52.118;11.436;2023-03-02T10:46:16;0.90;99.90
29571;DHT22;16814;52.118;11.436;2023-03-02T10:48:57;0.90;99.90
29571;DHT22;16814;52.118;11.436;2023-03-02T10:51:34;1.10;99.90
29571;DHT22;16814;52.118;11.436;2023-03-02T10:54:16;1.20;99.90
29571;DHT22;16814;52.118;11.436;2023-03-02T10:56:49;1.30;99.90
29571;DHT22;16814;52.118;11.436;2023-03-02T10:59:45;1.40;99.90
29571;DHT22;16814;52.118;11.436;2023-03-02T11:02:22;1.30;99.90
29571;DHT22;16814;52.118;11.436;2023-03-02T11:04:57;1.30;99.90
29571;DHT22;16814;52.118;11.436;2023-03-02T11:07:27;1.30;99.90
29571;DHT22;16814;52.118;11.436;2023-03-02T11:10:17;1.20;99.90
29571;DHT22;16814;52.118;11.436;2023-03-02T11:12:52;1.30;99.90
29571;DHT22;16814;52.118;11.436;2023-03-02T11:15:34;1.20;99.90
29571;DHT22;16814;52.118;11.436;2023-03-02T11:24:14;1.40;99.90
29571;DHT22;16814;52.118;11.436;2023-03-02T11:27:00;1.60;99.90
29571;DHT22;16814;52.118;11.436;2023-03-02T11:33:21;1.60;99.90
29571;DHT22;16814;52.118;11.436;2023-03-02T11:35:51;1.70;99.90
29571;DHT22;16814;52.118;11.436;2023-03-02T11:38:40;1.80;99.90
29571;DHT22;16814;52.118;11.436;2023-03-02T11:41:23;1.80;99.90
29571;DHT22;16814;52.118;11.436;2023-03-02T11:43:54;1.80;99.90
29571;DHT22;16814;52.118;11.436;2023-03-02T11:46:27;1.90;99.90
29571;DHT22;16814;52.118;11.436;2023-03-02T11:49:00;2.00;99.90
29571;DHT22;16814;52.118;11.436;2023-03-02T11:51:35;1.90;99.90
29571;DHT22;16814;52.118;11.436;2023-03-02T11:54:13;1.90;99.90
29571;DHT22;16814;52.118;11.436;2023-03-02T11:56:41;1.90;99.90
29571;DHT22;16814;52.118;11.436;2023-03-02T11:59:16;1.90;99.90
29571;DHT22;16814;52.118;11.436;2023-03-02T12:01:48;1.70;99.90
29571;DHT22;16814;52.118;11.436;2023-03-02T12:04:36;1.80;99.90
29571;DHT22;16814;52.118;11.436;2023-03-02T12:07:17;1.90;99.90
29571;DHT22;16814;52.118;11.436;2023-03-02T12:10:07;1.90;99.90
29571;DHT22;16814;52.118;11.436;2023-03-02T12:12:38;1.80;99.90
29571;DHT22;16814;52.118;11.436;2023-03-02T12:15:28;1.90;99.90
29571;DHT22;16814;52.118;11.436;2023-03-02T12:17:55;1.80;99.90
29571;DHT22;16814;52.118;11.436;2023-03-02T12:20:22;1.70;99.90
29571;DHT22;16814;52.118;11.436;2023-03-02T12:22:50;1.70;99.90
29571;DHT22;16814;52.118;11.436;2023-03-02T12:25:26;1.90;99.90
29571;DHT22;16814;52.118;11.436;2023-03-02T12:27:53;2.00;99.90
29571;DHT22;16814;52.118;11.436;2023-03-02T12:30:26;2.00;99.90
29571;DHT22;16814;52.118;11.436;2023-03-02T12:33:03;2.00;99.90
29571;DHT22;16814;52.118;11.436;2023-03-02T12:35:35;2.10;99.90
29571;DHT22;16814;52.118;11.436;2023-03-02T12:41:13;2.10;99.90
29571;DHT22;16814;52.118;11.436;2023-03-02T12:46:47;2.00;99.90
29571;DHT22;16814;52.118;11.436;2023-03-02T12:52:25;2.00;99.90
29571;DHT22;16814;52.118;11.436;2023-03-02T12:55:18;2.20;99.90
29571;DHT22;16814;52.118;11.436;2023-03-02T12:57:48;2.30;99.90
29571;DHT22;16814;52.118;11.436;2023-03-02T13:00:19;2.40;99.90
29571;DHT22;16814;52.118;11.436;2023-03-02T13:02:50;2.40;99.90
29571;DHT22;16814;52.118;11.436;2023-03-02T13:05:57;2.30;99.90
29571;DHT22;16814;52.118;11.436;2023-03-02T13:08:21;2.20;99.90
29571;DHT22;16814;52.118;11.436;2023-03-02T13:11:00;2.50;99.90
29571;DHT22;16814;52.118;11.436;2023-03-02T13:13:43;2.70;99.90
29571;DHT22;16814;52.118;11.436;2023-03-02T13:16:28;2.80;99.90
29571;DHT22;16814;52.118;11.436;2023-03-02T13:19:01;2.90;99.90
29571;DHT22;16814;52.118;11.436;2023-03-02T13:21:36;2.80;99.90
29571;DHT22;16814;52.118;11.436;2023-03-02T13:24:17;2.80;99.90
29571;DHT22;16814;52.118;11.436;2023-03-02T13:26:55;3.00;99.90
29571;DHT22;16814;52.118;11.436;2023-03-02T13:29:25;2.90;99.90
29571;DHT22;16814;52.118;11.436;2023-03-02T13:31:55;2.90;99.90
29571;DHT22;16814;52.118;11.436;2023-03-02T13:34:44;3.00;99.90
29571;DHT22;16814;52.118;11.436;2023-03-02T13:42:59;3.60;99.90
29571;DHT22;16814;52.118;11.436;2023-03-02T13:45:27;3.80;99.90
29571;DHT22;16814;52.118;11.436;2023-03-02T13:47:57;4.00;99.90
29571;DHT22;16814;52.118;11.436;2023-03-02T13:50:29;4.00;99.90
29571;DHT22;16814;52.118;11.436;2023-03-02T13:53:00;4.00;99.90
29571;DHT22;16814;52.118;11.436;2023-03-02T13:55:31;3.90;99.90
29571;DHT22;16814;52.118;11.436;2023-03-02T13:58:08;4.00;99.90
29571;DHT22;16814;52.118;11.436;2023-03-02T14:00:38;4.00;99.90
29571;DHT22;16814;52.118;11.436;2023-03-02T14:03:16;4.00;99.90
29571;DHT22;16814;52.118;11.436;2023-03-02T14:05:47;4.00;99.90
29571;DHT22;16814;52.118;11.436;2023-03-02T14:08:14;4.10;99.90
29571;DHT22;16814;52.118;11.436;2023-03-02T14:10:39;4.20;99.90
29571;DHT22;16814;52.118;11.436;2023-03-02T14:13:20;4.10;99.90
29571;DHT22;16814;52.118;11.436;2023-03-02T14:15:49;4.10;99.90
29571;DHT22;16814;52.118;11.436;2023-03-02T14:18:28;4.10;99.90
29571;DHT22;16814;52.118;11.436;2023-03-02T14:20:56;4.20;99.90
29571;DHT22;16814;52.118;11.436;2023-03-02T14:23:24;4.10;99.90
29571;DHT22;16814;52.118;11.436;2023-03-02T14:25:53;4.10;99.90
29571;DHT22;16814;52.118;11.436;2023-03-02T14:28:32;4.10;99.90
29571;DHT22;16814;52.118;11.436;2023-03-02T14:31:04;4.00;99.90
29571;DHT22;16814;52.118;11.436;2023-03-02T14:33:31;4.10;99.90
29571;DHT22;16814;52.118;11.436;2023-03-02T14:35:58;4.10;99.90
29571;DHT22;16814;52.118;11.436;2023-03-02T14:38:25;4.10;99.90
29571;DHT22;16814;52.118;11.436;2023-03-02T14:40:53;4.10;99.90
29571;DHT22;16814;52.118;11.436;2023-03-02T14:43:20;4.30;99.90
29571;DHT22;16814;52.118;11.436;2023-03-02T14:45:48;4.20;99.90
29571;DHT22;16814;52.118;11.436;2023-03-02T14:48:15;4.20;99.90
29571;DHT22;16814;52.118;11.436;2023-03-02T14:50:45;4.30;99.90
29571;DHT22;16814;52.118;11.436;2023-03-02T14:53:18;4.30;99.90
29571;DHT22;16814;52.118;11.436;2023-03-02T14:55:47;4.20;99.90
29571;DHT22;16814;52.118;11.436;2023-03-02T14:58:17;4.20;99.90
29571;DHT22;16814;52.118;11.436;2023-03-02T15:00:47;4.20;99.90
29571;DHT22;16814;52.118;11.436;2023-03-02T15:03:17;4.20;99.90
29571;DHT22;16814;52.118;11.436;2023-03-02T15:05:59;4.10;99.90
29571;DHT22;16814;52.118;11.436;2023-03-02T15:08:28;4.10;99.90
29571;DHT22;16814;52.118;11.436;2023-03-02T15:10:56;4.20;99.90
29571;DHT22;16814;52.118;11.436;2023-03-02T15:13:22;4.20;99.90
29571;DHT22;16814;52.118;11.436;2023-03-02T15:15:49;4.20;99.90
29571;DHT22;16814;52.118;11.436;2023-03-02T15:18:16;4.20;99.90
29571;DHT22;16814;52.118;11.436;2023-03-02T15:20:45;4.00;99.90
29571;DHT22;16814;52.118;11.436;2023-03-02T15:23:12;4.00;99.90
29571;DHT22;16814;52.118;11.436;2023-03-02T15:25:39;4.00;99.90
29571;DHT22;16814;52.118;11.436;2023-03-02T15:28:06;4.00;99.90
29571;DHT22;16814;52.118;11.436;2023-03-02T15:30:33;3.80;99.90
29571;DHT22;16814;52.118;11.436;2023-03-02T15:33:00;3.60;99.90
29571;DHT22;16814;52.118;11.436;2023-03-02T15:35:27;3.40;99.90
29571;DHT22;16814;52.118;11.436;2023-03-02T15:37:53;3.30;99.90
29571;DHT22;16814;52.118;11.436;2023-03-02T15:40:23;3.10;99.90
29571;DHT22;16814;52.118;11.436;2023-03-02T15:42:51;3.10;99.90
29571;DHT22;16814;52.118;11.436;2023-03-02T15:45:20;3.10;99.90
29571;DHT22;16814;52.118;11.436;2023-03-02T15:47:45;3.00;99.90
29571;DHT22;16814;52.118;11.436;2023-03-02T15:50:12;2.90;99.90
29571;DHT22;16814;52.118;11.436;2023-03-02T15:52:39;2.90;99.90
29571;DHT22;16814;52.118;11.436;2023-03-02T15:55:14;2.90;99.90
29571;DHT22;16814;52.118;11.436;2023-03-02T15:57:41;2.70;99.90
29571;DHT22;16814;52.118;11.436;2023-03-02T16:00:09;2.70;99.90
29571;DHT22;16814;52.118;11.436;2023-03-02T16:02:38;2.60;99.90
29571;DHT22;16814;52.118;11.436;2023-03-02T16:05:04;2.60;99.90
29571;DHT22;16814;52.118;11.436;2023-03-02T16:07:30;2.60;99.90
29571;DHT22;16814;52.118;11.436;2023-03-02T16:09:57;2.60;99.90
29571;DHT22;16814;52.118;11.436;2023-03-02T16:12:24;2.50;99.90
29571;DHT22;16814;52.118;11.436;2023-03-02T16:14:51;2.50;99.90
29571;DHT22;16814;52.118;11.436;2023-03-02T16:17:19;2.30;99.90
29571;DHT22;16814;52.118;11.436;2023-03-02T16:19:45;2.20;99.90
29571;DHT22;16814;52.118;11.436;2023-03-02T16:22:11;2.20;99.90
29571;DHT22;16814;52.118;11.436;2023-03-02T16:24:39;2.10;99.90
29571;DHT22;16814;52.118;11.436;2023-03-02T16:27:06;1.90;99.90
29571;DHT22;16814;52.118;11.436;2023-03-02T16:29:32;1.80;99.90
29571;DHT22;16814;52.118;11.436;2023-03-02T16:31:59;1.80;99.90
29571;DHT22;16814;52.118;11.436;2023-03-02T16:34:25;1.70;99.90
29571;DHT22;16814;52.118;11.436;2023-03-02T16:36:53;1.50;99.90
29571;DHT22;16814;52.118;11.436;2023-03-02T16:39:20;1.60;99.90
29571;DHT22;16814;52.118;11.436;2023-03-02T16:41:45;1.50;99.90
29571;DHT22;16814;52.118;11.436;2023-03-02T16:44:13;1.50;99.90
29571;DHT22;16814;52.118;11.436;2023-03-02T16:46:41;1.40;99.90
29571;DHT22;16814;52.118;11.436;2023-03-02T16:49:09;1.30;99.90